Time;durP1;ratioP1;P1;durP2;ratioP2;P2;SDS_P1;SDS_P2;PMS_P1;PMS_P2;Temp;Humidity;BMP_temperature;BMP_pressure;BME280_temperature;BME280_humidity;BME280_pressure;Samples;Min_cycle;Max_cycle;Signal;HPM_P1;HPM_P2
2022/06/28 00:00:57;;;;;;;1.42;1.33;;;;;;;;;;5046575;28;20057;-86
2022/06/28 00:03:23;;;;;;;2.70;1.60;;;;;;;;;;5046523;28;20102;-86
2022/06/28 00:05:49;;;;;;;2.47;1.95;;;;;;;;;;5045007;28;20049;-86
2022/06/28 00:08:14;;;;;;;3.40;2.00;;;;;;;;;;5045882;28;20091;-86
2022/06/28 00:10:40;;;;;;;2.22;1.80;;;;;;;;;;5046049;28;20029;-85
2022/06/28 00:13:05;;;;;;;2.00;1.70;;;;;;;;;;5045826;28;20035;-86
2022/06/28 00:18:15;;;;;;;2.22;1.80;;;;;;;;;;5046404;28;20037;-87
2022/06/28 00:20:40;;;;;;;3.10;1.80;;;;;;;;;;5045663;28;20098;-85
2022/06/28 00:23:06;;;;;;;3.30;1.80;;;;;;;;;;5045932;28;20029;-86
2022/06/28 00:25:32;;;;;;;4.40;1.80;;;;;;;;;;5045197;28;20116;-86
2022/06/28 00:27:57;;;;;;;2.33;1.75;;;;;;;;;;5046330;28;20033;-85
2022/06/28 00:30:23;;;;;;;4.45;1.70;;;;;;;;;;5045071;28;20045;-86
2022/06/28 00:32:48;;;;;;;2.25;1.73;;;;;;;;;;5044049;28;20029;-86
2022/06/28 00:35:14;;;;;;;2.92;2.17;;;;;;;;;;5044373;28;20083;-86
2022/06/28 00:37:39;;;;;;;2.42;1.73;;;;;;;;;;5044215;28;20026;-86
2022/06/28 00:40:09;;;;;;;3.35;1.80;;;;;;;;;;5044532;28;20049;-89
2022/06/28 00:42:34;;;;;;;2.75;1.65;;;;;;;;;;5040610;28;20488;-87
2022/06/28 00:45:01;;;;;;;2.00;1.67;;;;;;;;;;5038861;28;20025;-87
2022/06/28 00:47:27;;;;;;;2.13;1.60;;;;;;;;;;5038638;28;20033;-87
2022/06/28 00:49:56;;;;;;;4.68;2.00;;;;;;;;;;5039711;28;20041;-87
2022/06/28 00:52:22;;;;;;;2.13;1.77;;;;;;;;;;5039863;28;20049;-87
2022/06/28 00:54:47;;;;;;;2.28;1.70;;;;;;;;;;5039391;28;20030;-87
2022/06/28 00:57:13;;;;;;;2.22;1.63;;;;;;;;;;5038681;28;20040;-87
2022/06/28 00:59:38;;;;;;;3.35;1.60;;;;;;;;;;5039256;28;20029;-87
2022/06/28 01:02:04;;;;;;;1.88;1.50;;;;;;;;;;5039480;28;20044;-87
2022/06/28 01:04:30;;;;;;;2.85;1.92;;;;;;;;;;5038591;28;20406;-87
2022/06/28 01:06:56;;;;;;;2.70;1.60;;;;;;;;;;5039210;28;20037;-87
2022/06/28 01:09:24;;;;;;;3.65;1.63;;;;;;;;;;5037987;28;20081;-87
2022/06/28 01:11:50;;;;;;;2.08;1.52;;;;;;;;;;5038820;28;20059;-87
2022/06/28 01:14:15;;;;;;;2.25;1.70;;;;;;;;;;5039197;28;20036;-87
2022/06/28 01:17:07;;;;;;;1.95;1.70;;;;;;;;;;5038137;28;20038;-87
2022/06/28 01:19:52;;;;;;;3.80;1.80;;;;;;;;;;5037834;28;20021;-87
2022/06/28 01:22:42;;;;;;;5.03;1.70;;;;;;;;;;5039139;28;20053;-87
2022/06/28 01:25:11;;;;;;;2.45;1.75;;;;;;;;;;5037370;28;20044;-87
2022/06/28 01:27:40;;;;;;;3.05;1.80;;;;;;;;;;5037987;28;20183;-87
2022/06/28 01:30:07;;;;;;;2.35;1.58;;;;;;;;;;5037617;28;20044;-87
2022/06/28 01:33:08;;;;;;;2.20;1.70;;;;;;;;;;5033914;28;20502;-87
2022/06/28 01:35:34;;;;;;;1.88;1.60;;;;;;;;;;5037425;28;20024;-87
2022/06/28 01:38:01;;;;;;;3.75;1.80;;;;;;;;;;5037495;28;20493;-87
2022/06/28 01:40:27;;;;;;;2.30;1.60;;;;;;;;;;5036736;28;20029;-87
2022/06/28 01:42:54;;;;;;;2.25;1.75;;;;;;;;;;5037686;28;20094;-87
2022/06/28 01:45:20;;;;;;;3.55;2.15;;;;;;;;;;5038089;28;20040;-87
2022/06/28 01:47:47;;;;;;;2.28;1.83;;;;;;;;;;5038597;28;20064;-87
2022/06/28 01:50:32;;;;;;;2.30;1.80;;;;;;;;;;5038203;28;20093;-87
2022/06/28 01:52:58;;;;;;;3.90;2.15;;;;;;;;;;5053337;28;20026;-87
2022/06/28 01:55:38;;;;;;;2.90;2.00;;;;;;;;;;5036602;28;20040;-85
2022/06/28 01:58:09;;;;;;;2.97;2.10;;;;;;;;;;5053820;28;20026;-87
2022/06/28 02:00:39;;;;;;;3.13;2.00;;;;;;;;;;5036205;28;20032;-86
2022/06/28 02:03:05;;;;;;;3.53;2.20;;;;;;;;;;5053524;28;20039;-87
2022/06/28 02:05:50;;;;;;;2.40;1.85;;;;;;;;;;5036339;28;20489;-86
2022/06/28 02:08:16;;;;;;;2.35;1.80;;;;;;;;;;5036374;28;20081;-87
2022/06/28 02:10:58;;;;;;;2.22;1.92;;;;;;;;;;5036460;28;20022;-87
2022/06/28 02:13:27;;;;;;;3.60;1.98;;;;;;;;;;5036864;28;20068;-87
2022/06/28 02:15:53;;;;;;;4.50;2.35;;;;;;;;;;5037532;28;20030;-87
2022/06/28 02:18:18;;;;;;;3.22;2.20;;;;;;;;;;5036822;28;20039;-87
2022/06/28 02:20:45;;;;;;;5.60;2.50;;;;;;;;;;5036970;28;20456;-87
2022/06/28 02:23:11;;;;;;;4.20;2.50;;;;;;;;;;5054730;28;20566;-87
2022/06/28 02:25:36;;;;;;;3.30;2.50;;;;;;;;;;5037178;28;20029;-87
2022/06/28 02:28:02;;;;;;;3.97;2.60;;;;;;;;;;5037684;28;20032;-87
2022/06/28 02:30:28;;;;;;;4.18;2.58;;;;;;;;;;5037392;28;20083;-87
2022/06/28 02:32:53;;;;;;;4.18;2.60;;;;;;;;;;5037424;28;20091;-87
2022/06/28 02:40:47;;;;;;;3.20;2.50;;;;;;;;;;5037389;28;20036;-87
2022/06/28 02:43:13;;;;;;;4.57;2.67;;;;;;;;;;5038281;28;20033;-87
2022/06/28 02:45:40;;;;;;;2.85;2.30;;;;;;;;;;5037303;28;20063;-87
2022/06/28 02:48:06;;;;;;;2.90;2.40;;;;;;;;;;5038344;28;20033;-87
2022/06/28 02:50:32;;;;;;;3.25;2.30;;;;;;;;;;5037272;28;20413;-87
2022/06/28 02:52:58;;;;;;;3.75;2.13;;;;;;;;;;5038512;28;20092;-87
2022/06/28 02:55:23;;;;;;;3.55;2.20;;;;;;;;;;5037053;28;20021;-87
2022/06/28 02:57:50;;;;;;;3.42;2.42;;;;;;;;;;5036834;28;20033;-87
2022/06/28 03:00:17;;;;;;;3.33;2.33;;;;;;;;;;5037204;28;20103;-87
2022/06/28 03:02:46;;;;;;;2.75;2.20;;;;;;;;;;5037762;28;20043;-87
2022/06/28 03:05:16;;;;;;;2.72;2.33;;;;;;;;;;5020147;28;20033;-87
2022/06/28 03:07:43;;;;;;;3.90;2.50;;;;;;;;;;5053758;28;20207;-87
2022/06/28 03:10:09;;;;;;;2.92;2.60;;;;;;;;;;5036687;28;20025;-87
2022/06/28 03:12:35;;;;;;;3.97;2.80;;;;;;;;;;5040204;28;20516;-87
2022/06/28 03:15:02;;;;;;;5.13;2.67;;;;;;;;;;5039966;28;20035;-87
2022/06/28 03:17:28;;;;;;;2.78;2.30;;;;;;;;;;5040111;28;20037;-87
2022/06/28 03:19:54;;;;;;;2.75;2.45;;;;;;;;;;5040871;28;20059;-87
2022/06/28 03:22:19;;;;;;;2.63;2.42;;;;;;;;;;5040917;28;20103;-87
2022/06/28 03:24:46;;;;;;;2.67;2.30;;;;;;;;;;5039757;28;20064;-87
2022/06/28 03:27:12;;;;;;;2.85;2.25;;;;;;;;;;5040672;28;20029;-87
2022/06/28 03:29:38;;;;;;;2.80;2.30;;;;;;;;;;5056336;28;20037;-87
2022/06/28 03:32:07;;;;;;;3.53;2.15;;;;;;;;;;5056784;28;20063;-87
2022/06/28 03:34:33;;;;;;;6.80;2.60;;;;;;;;;;5023906;28;20041;-87
2022/06/28 03:36:59;;;;;;;4.72;2.65;;;;;;;;;;5040743;28;20036;-87
2022/06/28 03:39:35;;;;;;;3.40;2.60;;;;;;;;;;5040015;28;20053;-87
2022/06/28 03:42:02;;;;;;;5.68;2.90;;;;;;;;;;5039652;28;20060;-87
2022/06/28 03:44:29;;;;;;;5.38;2.65;;;;;;;;;;5040406;28;20024;-87
2022/06/28 03:46:57;;;;;;;5.13;2.78;;;;;;;;;;5040271;28;20040;-87
2022/06/28 03:49:37;;;;;;;4.00;2.45;;;;;;;;;;5041273;28;20093;-87
2022/06/28 03:52:28;;;;;;;4.72;2.50;;;;;;;;;;5026115;28;20041;-87
2022/06/28 03:55:06;;;;;;;2.85;2.33;;;;;;;;;;5040330;28;20132;-87
2022/06/28 03:57:40;;;;;;;3.47;2.20;;;;;;;;;;5040490;28;20033;-87
2022/06/28 04:00:08;;;;;;;4.78;2.40;;;;;;;;;;5039540;28;20037;-87
2022/06/28 04:02:38;;;;;;;2.90;1.90;;;;;;;;;;5039973;28;20026;-87
2022/06/28 04:05:04;;;;;;;2.58;2.20;;;;;;;;;;5023290;28;20041;-87
2022/06/28 04:07:30;;;;;;;3.08;1.92;;;;;;;;;;5022896;28;20127;-88
2022/06/28 04:09:55;;;;;;;4.07;2.42;;;;;;;;;;5056092;28;20041;-88
2022/06/28 04:12:21;;;;;;;3.08;2.10;;;;;;;;;;5056340;28;20412;-87
2022/06/28 04:14:48;;;;;;;2.85;2.10;;;;;;;;;;5022988;28;20037;-87
2022/06/28 04:17:14;;;;;;;2.92;2.25;;;;;;;;;;5039767;28;20029;-87
2022/06/28 04:19:55;;;;;;;4.88;2.13;;;;;;;;;;5039608;28;20033;-87
2022/06/28 04:22:22;;;;;;;2.22;1.90;;;;;;;;;;5038622;28;20132;-88
2022/06/28 04:24:47;;;;;;;3.00;2.05;;;;;;;;;;5022809;28;20446;-87
2022/06/28 04:27:18;;;;;;;2.55;1.77;;;;;;;;;;5039602;28;20029;-87
2022/06/28 04:29:43;;;;;;;3.25;2.25;;;;;;;;;;5039137;28;20033;-87
2022/06/28 04:32:27;;;;;;;;;;;;;;;;;;5040338;28;20474;-87
2022/06/28 04:34:53;;;;;;;1.55;1.40;;;;;;;;;;5039367;28;19917;-87
2022/06/28 04:37:18;;;;;;;2.63;1.60;;;;;;;;;;5039234;28;20060;-87
2022/06/28 04:39:46;;;;;;;3.15;1.70;;;;;;;;;;5038864;28;20033;-88
2022/06/28 04:42:20;;;;;;;2.45;1.65;;;;;;;;;;5038696;28;20029;-88
2022/06/28 04:44:46;;;;;;;2.63;1.90;;;;;;;;;;5038832;28;20053;-87
2022/06/28 04:47:16;;;;;;;3.22;1.80;;;;;;;;;;5055613;28;20067;-87
2022/06/28 04:49:43;;;;;;;2.70;1.92;;;;;;;;;;5039444;28;20033;-87
2022/06/28 04:52:09;;;;;;;4.68;2.30;;;;;;;;;;5040470;28;20037;-87
2022/06/28 04:54:46;;;;;;;4.15;2.10;;;;;;;;;;5056406;28;20033;-87
2022/06/28 04:57:12;;;;;;;2.15;1.85;;;;;;;;;;5040329;28;20103;-88
2022/06/28 04:59:39;;;;;;;2.88;2.10;;;;;;;;;;5039938;28;20061;-88
2022/06/28 05:02:12;;;;;;;2.28;1.80;;;;;;;;;;5036770;28;20453;-87
2022/06/28 05:04:38;;;;;;;3.92;1.90;;;;;;;;;;5034504;28;20057;-87
2022/06/28 05:07:13;;;;;;;2.15;1.90;;;;;;;;;;5018458;28;20057;-87
2022/06/28 05:09:40;;;;;;;3.03;1.70;;;;;;;;;;5017115;28;20045;-87
2022/06/28 05:12:06;;;;;;;5.60;1.77;;;;;;;;;;5034068;28;20044;-87
2022/06/28 05:14:35;;;;;;;2.85;1.80;;;;;;;;;;5017969;28;20037;-86
2022/06/28 05:17:01;;;;;;;4.90;1.95;;;;;;;;;;5018055;28;20036;-86
2022/06/28 05:19:30;;;;;;;2.28;1.52;;;;;;;;;;5034134;28;20040;-86
2022/06/28 05:21:56;;;;;;;4.15;1.95;;;;;;;;;;5017497;28;20100;-87
2022/06/28 05:24:22;;;;;;;2.85;1.92;;;;;;;;;;5033618;28;20038;-87
2022/06/28 05:26:58;;;;;;;4.72;2.10;;;;;;;;;;5033836;28;20040;-87
2022/06/28 05:29:26;;;;;;;2.72;1.90;;;;;;;;;;5032964;28;20132;-86
2022/06/28 05:31:52;;;;;;;3.95;1.98;;;;;;;;;;5033709;28;20496;-85
2022/06/28 05:34:20;;;;;;;2.72;2.00;;;;;;;;;;5019943;28;20033;-86
2022/06/28 05:36:45;;;;;;;3.20;1.88;;;;;;;;;;5052545;28;20116;-84
2022/06/28 05:39:13;;;;;;;2.78;2.20;;;;;;;;;;5034993;28;20033;-84
2022/06/28 05:41:41;;;;;;;3.65;2.08;;;;;;;;;;5033358;28;20175;-86
2022/06/28 05:44:08;;;;;;;5.20;1.85;;;;;;;;;;5050499;28;20091;-86
2022/06/28 05:46:34;;;;;;;2.70;1.77;;;;;;;;;;5033580;28;20051;-86
2022/06/28 05:49:00;;;;;;;2.13;1.70;;;;;;;;;;5033295;28;20462;-86
2022/06/28 05:51:26;;;;;;;2.08;1.70;;;;;;;;;;5033472;28;20056;-85
2022/06/28 05:53:51;;;;;;;3.72;1.90;;;;;;;;;;5033345;28;20032;-86
2022/06/28 05:56:17;;;;;;;2.78;1.80;;;;;;;;;;5049756;28;20033;-86
2022/06/28 05:58:42;;;;;;;3.13;1.85;;;;;;;;;;5033277;28;20091;-86
2022/06/28 06:01:08;;;;;;;3.63;2.00;;;;;;;;;;5034282;28;20441;-86
2022/06/28 06:03:33;;;;;;;3.47;2.03;;;;;;;;;;5033076;28;20542;-85
2022/06/28 06:05:59;;;;;;;3.53;1.90;;;;;;;;;;5033643;28;20060;-85
2022/06/28 06:08:26;;;;;;;2.72;1.90;;;;;;;;;;5034130;28;20052;-87
2022/06/28 06:10:51;;;;;;;3.83;2.10;;;;;;;;;;5016201;28;20056;-88
2022/06/28 06:13:17;;;;;;;3.47;1.80;;;;;;;;;;5034097;28;20474;-88
2022/06/28 06:15:43;;;;;;;3.17;2.20;;;;;;;;;;5032463;28;20035;-88
2022/06/28 06:18:08;;;;;;;2.10;1.90;;;;;;;;;;5016018;28;20029;-87
2022/06/28 06:20:34;;;;;;;3.15;2.00;;;;;;;;;;5016470;28;20120;-88
2022/06/28 06:23:00;;;;;;;3.58;2.00;;;;;;;;;;5018049;28;20394;-87
2022/06/28 06:25:44;;;;;;;2.13;1.83;;;;;;;;;;5037798;28;20048;-86
2022/06/28 06:28:10;;;;;;;2.85;2.08;;;;;;;;;;5054023;28;20037;-87
2022/06/28 06:30:36;;;;;;;3.65;2.10;;;;;;;;;;5037142;28;20022;-87
2022/06/28 06:33:25;;;;;;;3.38;1.98;;;;;;;;;;5026426;28;20045;-86
2022/06/28 06:36:11;;;;;;;3.15;2.00;;;;;;;;;;5035888;28;20099;-87
2022/06/28 06:38:37;;;;;;;2.83;1.98;;;;;;;;;;5037203;28;20037;-86
2022/06/28 06:41:04;;;;;;;2.42;2.10;;;;;;;;;;5022932;28;20057;-84
2022/06/28 06:43:30;;;;;;;2.97;2.20;;;;;;;;;;5027716;28;20502;-86
2022/06/28 06:46:07;;;;;;;3.65;2.17;;;;;;;;;;5026022;28;20045;-85
2022/06/28 06:48:33;;;;;;;2.63;2.20;;;;;;;;;;5041940;28;20056;-85
2022/06/28 06:51:01;;;;;;;3.35;2.40;;;;;;;;;;5045081;28;20041;-85
2022/06/28 06:53:28;;;;;;;3.83;1.95;;;;;;;;;;5026213;28;20057;-85
2022/06/28 06:55:55;;;;;;;3.83;2.35;;;;;;;;;;5044124;28;20041;-85
2022/06/28 06:58:21;;;;;;;2.50;2.22;;;;;;;;;;5044425;28;20087;-85
2022/06/28 07:00:46;;;;;;;3.05;2.15;;;;;;;;;;5045142;28;20064;-86
2022/06/28 07:03:12;;;;;;;5.18;2.38;;;;;;;;;;5043486;28;20037;-87
2022/06/28 07:05:40;;;;;;;2.47;1.80;;;;;;;;;;5061786;28;20652;-85
2022/06/28 07:08:06;;;;;;;2.33;2.03;;;;;;;;;;5041906;28;20036;-86
2022/06/28 07:10:39;;;;;;;3.55;2.00;;;;;;;;;;5041284;28;20407;-86
2022/06/28 07:13:04;;;;;;;2.42;2.10;;;;;;;;;;5043967;28;20037;-86
2022/06/28 07:15:30;;;;;;;3.75;2.10;;;;;;;;;;5044388;28;20025;-85
2022/06/28 07:17:55;;;;;;;3.63;2.00;;;;;;;;;;5026974;28;20045;-85
2022/06/28 07:20:21;;;;;;;2.22;1.90;;;;;;;;;;5045637;28;20156;-85
2022/06/28 07:22:47;;;;;;;2.35;1.83;;;;;;;;;;5027931;28;20033;-85
2022/06/28 07:25:18;;;;;;;5.15;2.10;;;;;;;;;;5045433;28;20030;-84
2022/06/28 07:27:43;;;;;;;4.40;2.00;;;;;;;;;;5045064;28;20101;-84
2022/06/28 07:30:09;;;;;;;3.15;2.28;;;;;;;;;;5044680;28;20040;-84
2022/06/28 07:32:35;;;;;;;3.25;2.30;;;;;;;;;;5061307;28;20079;-85
2022/06/28 07:35:01;;;;;;;2.72;2.10;;;;;;;;;;5044204;28;20033;-85
2022/06/28 07:37:27;;;;;;;6.07;2.28;;;;;;;;;;5042372;28;20097;-85
2022/06/28 07:39:54;;;;;;;3.28;2.03;;;;;;;;;;5044032;28;20037;-85
2022/06/28 07:42:38;;;;;;;3.50;2.15;;;;;;;;;;5043290;28;20268;-85
2022/06/28 07:45:24;;;;;;;2.35;1.98;;;;;;;;;;5040050;28;20072;-86
2022/06/28 07:47:57;;;;;;;3.17;2.33;;;;;;;;;;5043315;28;20057;-85
2022/06/28 07:53:12;;;;;;;6.35;2.67;;;;;;;;;;5034445;28;20046;-82
2022/06/28 07:56:01;;;;;;;3.45;2.20;;;;;;;;;;5035368;28;20490;-84
2022/06/28 07:58:32;;;;;;;2.80;1.80;;;;;;;;;;5051885;28;20398;-84
2022/06/28 08:01:01;;;;;;;2.67;1.90;;;;;;;;;;5037232;28;20033;-84
2022/06/28 08:03:27;;;;;;;4.60;1.95;;;;;;;;;;5037894;28;20464;-84
2022/06/28 08:05:53;;;;;;;2.88;2.00;;;;;;;;;;5036933;28;20037;-84
2022/06/28 08:08:22;;;;;;;3.63;2.10;;;;;;;;;;5021578;28;20044;-84
2022/06/28 08:10:48;;;;;;;4.07;2.13;;;;;;;;;;5037455;28;20034;-84
2022/06/28 08:13:16;;;;;;;2.72;1.98;;;;;;;;;;5038088;28;20043;-84
2022/06/28 08:15:43;;;;;;;3.15;1.90;;;;;;;;;;5054181;28;20033;-84
2022/06/28 08:18:09;;;;;;;4.38;1.98;;;;;;;;;;5053411;28;20064;-84
2022/06/28 08:21:19;;;;;;;2.30;2.00;;;;;;;;;;5060235;23;20056;-84
2022/06/28 09:00:49;;;;;;;4.32;3.20;;;;;;;;;;5219290;23;20052;-86
2022/06/28 09:03:19;;;;;;;5.82;2.97;;;;;;;;;;5041894;28;20055;-85
2022/06/28 09:05:46;;;;;;;4.38;2.60;;;;;;;;;;5057297;28;20029;-85
2022/06/28 09:08:11;;;;;;;4.25;2.75;;;;;;;;;;5039878;28;20033;-85
2022/06/28 09:10:37;;;;;;;4.30;2.72;;;;;;;;;;5057381;28;20086;-85
2022/06/28 09:13:09;;;;;;;4.15;2.60;;;;;;;;;;5057673;28;20040;-86
2022/06/28 09:15:49;;;;;;;5.03;2.63;;;;;;;;;;5057377;28;20040;-85
2022/06/28 09:18:16;;;;;;;4.50;2.70;;;;;;;;;;5057416;28;20036;-86
2022/06/28 09:20:42;;;;;;;5.85;2.92;;;;;;;;;;5057614;28;20052;-86
2022/06/28 09:23:42;;;;;;;3.42;2.80;;;;;;;;;;5057437;28;20536;-85
2022/06/28 09:26:09;;;;;;;3.92;2.90;;;;;;;;;;5003584;28;20067;-86
2022/06/28 09:28:38;;;;;;;3.05;2.60;;;;;;;;;;5039261;28;20033;-85
2022/06/28 09:31:21;;;;;;;3.83;2.80;;;;;;;;;;5057339;28;20040;-85
2022/06/28 09:34:08;;;;;;;3.25;2.72;;;;;;;;;;5039272;28;20037;-85
2022/06/28 09:36:57;;;;;;;3.50;2.50;;;;;;;;;;5057097;28;20053;-85
2022/06/28 09:39:27;;;;;;;6.85;2.53;;;;;;;;;;5039289;28;20036;-85
2022/06/28 09:41:54;;;;;;;4.63;2.72;;;;;;;;;;5057389;28;20399;-85
2022/06/28 09:44:29;;;;;;;4.97;2.90;;;;;;;;;;5057478;28;20049;-86
2022/06/28 09:46:57;;;;;;;4.15;2.85;;;;;;;;;;5060367;28;20440;-86
2022/06/28 09:49:29;;;;;;;3.97;3.20;;;;;;;;;;5057752;28;20045;-85
2022/06/28 09:51:57;;;;;;;5.78;3.47;;;;;;;;;;5058598;28;20021;-86
2022/06/28 09:54:25;;;;;;;5.28;2.92;;;;;;;;;;5058371;28;20045;-86
2022/06/28 09:56:56;;;;;;;3.70;3.00;;;;;;;;;;5059484;28;20041;-86
2022/06/28 09:59:24;;;;;;;3.58;3.05;;;;;;;;;;5042164;28;20040;-86
2022/06/28 10:01:52;;;;;;;5.32;3.10;;;;;;;;;;5041085;28;20032;-86
2022/06/28 10:04:19;;;;;;;3.60;2.83;;;;;;;;;;5058424;28;20041;-86
2022/06/28 10:06:45;;;;;;;4.70;2.92;;;;;;;;;;5058420;28;20063;-86
2022/06/28 10:09:11;;;;;;;3.55;3.10;;;;;;;;;;5058790;28;20028;-85
2022/06/28 10:17:29;;;;;;;3.22;2.60;;;;;;;;;;5058514;28;20036;-86
2022/06/28 10:19:57;;;;;;;3.60;2.72;;;;;;;;;;5057300;28;20090;-86
2022/06/28 10:22:23;;;;;;;3.25;2.80;;;;;;;;;;5057194;28;20032;-85
2022/06/28 10:24:54;;;;;;;3.78;2.80;;;;;;;;;;5039852;28;20045;-87
2022/06/28 10:27:21;;;;;;;4.10;2.65;;;;;;;;;;5057022;28;20041;-88
2022/06/28 10:30:17;;;;;;;10.20;2.60;;;;;;;;;;5057566;28;20071;-87
2022/06/28 10:32:52;;;;;;;3.92;2.67;;;;;;;;;;5049230;28;20045;-87
2022/06/28 10:35:36;;;;;;;4.05;2.97;;;;;;;;;;5061322;28;20082;-85
2022/06/28 10:38:08;;;;;;;4.45;3.10;;;;;;;;;;5065379;28;20032;-84
2022/06/28 10:40:47;;;;;;;3.20;2.90;;;;;;;;;;5064987;28;20051;-84
2022/06/28 10:43:28;;;;;;;4.88;2.88;;;;;;;;;;5064700;28;20128;-84
2022/06/28 10:46:00;;;;;;;6.75;3.15;;;;;;;;;;5062730;28;20045;-84
2022/06/28 10:48:26;;;;;;;3.30;2.70;;;;;;;;;;5046177;28;20127;-84
2022/06/28 10:50:59;;;;;;;4.43;2.80;;;;;;;;;;5046533;28;20083;-84
2022/06/28 10:53:32;;;;;;;4.07;2.63;;;;;;;;;;5064232;28;20120;-84
2022/06/28 10:56:13;;;;;;;4.75;2.53;;;;;;;;;;5045747;28;20378;-84
2022/06/28 10:59:05;;;;;;;8.07;2.83;;;;;;;;;;5048084;28;20105;-85
2022/06/28 11:01:40;;;;;;;5.53;3.20;;;;;;;;;;5064870;28;20037;-84
2022/06/28 11:04:17;;;;;;;4.85;2.75;;;;;;;;;;5065399;28;20048;-84
2022/06/28 11:06:44;;;;;;;7.45;2.60;;;;;;;;;;5047325;28;20161;-84
2022/06/28 11:09:49;;;;;;;3.80;2.88;;;;;;;;;;5066063;28;20032;-85
2022/06/28 11:12:37;;;;;;;4.22;2.55;;;;;;;;;;5060365;28;20041;-83
2022/06/28 11:15:05;;;;;;;3.65;2.80;;;;;;;;;;5065673;28;20049;-84
2022/06/28 11:17:33;;;;;;;6.32;2.90;;;;;;;;;;5047475;28;20079;-84
2022/06/28 11:20:03;;;;;;;4.15;2.80;;;;;;;;;;5066176;28;20472;-85
2022/06/28 11:22:47;;;;;;;4.65;2.80;;;;;;;;;;5064514;28;20067;-85
2022/06/28 11:25:21;;;;;;;3.65;2.60;;;;;;;;;;5065547;28;20041;-84
2022/06/28 11:27:56;;;;;;;4.13;3.00;;;;;;;;;;5063960;28;20043;-84
2022/06/28 11:30:23;;;;;;;4.22;2.85;;;;;;;;;;5047652;28;20048;-82
2022/06/28 11:32:50;;;;;;;4.82;2.55;;;;;;;;;;5068062;28;20064;-83
2022/06/28 11:35:16;;;;;;;4.15;2.95;;;;;;;;;;5034862;28;20020;-82
2022/06/28 11:38:01;;;;;;;4.68;2.80;;;;;;;;;;5070237;28;20043;-83
2022/06/28 11:40:30;;;;;;;6.38;2.85;;;;;;;;;;5069836;28;20033;-84
2022/06/28 11:43:09;;;;;;;4.07;2.90;;;;;;;;;;5069040;28;20025;-84
2022/06/28 11:45:55;;;;;;;3.10;2.80;;;;;;;;;;5069170;28;20171;-83
2022/06/28 11:48:28;;;;;;;6.25;2.85;;;;;;;;;;5036141;28;20037;-83
2022/06/28 11:50:55;;;;;;;4.43;3.15;;;;;;;;;;5069115;28;20045;-84
2022/06/28 11:53:22;;;;;;;4.53;2.95;;;;;;;;;;5035104;28;20057;-83
2022/06/28 11:55:53;;;;;;;5.13;3.20;;;;;;;;;;5069257;28;20049;-83
2022/06/28 11:58:19;;;;;;;6.60;2.90;;;;;;;;;;5068738;28;20041;-83
2022/06/28 12:01:03;;;;;;;4.55;2.97;;;;;;;;;;5068684;28;20036;-83
2022/06/28 12:03:29;;;;;;;4.30;2.72;;;;;;;;;;5051220;28;20564;-84
2022/06/28 12:06:00;;;;;;;4.88;2.90;;;;;;;;;;5050574;28;20029;-83
2022/06/28 12:09:07;;;;;;;7.00;2.90;;;;;;;;;;5044566;28;20047;-85
2022/06/28 12:11:35;;;;;;;6.88;3.20;;;;;;;;;;5058113;28;20055;-84
2022/06/28 12:14:03;;;;;;;4.15;2.60;;;;;;;;;;5065828;28;20037;-85
2022/06/28 12:16:33;;;;;;;5.13;2.70;;;;;;;;;;5031970;28;20028;-84
2022/06/28 12:19:00;;;;;;;4.03;2.83;;;;;;;;;;5051383;28;20033;-83
2022/06/28 12:21:27;;;;;;;3.60;2.78;;;;;;;;;;5050621;28;20036;-85
2022/06/28 12:23:54;;;;;;;5.07;3.08;;;;;;;;;;5067128;28;20068;-85
2022/06/28 12:26:21;;;;;;;3.53;2.50;;;;;;;;;;5051818;28;20033;-84
2022/06/28 12:28:47;;;;;;;6.30;3.03;;;;;;;;;;5069987;28;20033;-85
2022/06/28 12:31:42;;;;;;;3.83;2.83;;;;;;;;;;5033607;28;20037;-88
2022/06/28 12:34:14;;;;;;;5.72;2.72;;;;;;;;;;5049761;28;20044;-84
2022/06/28 12:36:40;;;;;;;3.08;2.60;;;;;;;;;;5066188;28;20017;-86
2022/06/28 12:39:05;;;;;;;4.65;2.60;;;;;;;;;;5065483;28;20393;-84
2022/06/28 12:41:31;;;;;;;8.05;3.13;;;;;;;;;;5066773;28;20108;-84
2022/06/28 12:43:57;;;;;;;5.80;2.70;;;;;;;;;;5066637;28;20045;-85
2022/06/28 12:46:22;;;;;;;5.13;3.22;;;;;;;;;;5049203;28;20037;-86
2022/06/28 12:48:48;;;;;;;5.05;2.80;;;;;;;;;;5067268;28;20033;-85
2022/06/28 12:51:13;;;;;;;5.38;2.60;;;;;;;;;;5067276;28;20033;-85
2022/06/28 12:53:39;;;;;;;5.43;2.80;;;;;;;;;;5050266;28;20056;-86
2022/06/28 12:56:04;;;;;;;4.57;3.00;;;;;;;;;;5066954;28;20096;-85
2022/06/28 12:58:30;;;;;;;3.38;2.70;;;;;;;;;;5046480;28;20098;-86
2022/06/28 13:00:56;;;;;;;4.03;2.63;;;;;;;;;;5064105;28;20040;-84
2022/06/28 13:03:21;;;;;;;5.72;2.80;;;;;;;;;;5065282;28;20049;-83
2022/06/28 13:05:47;;;;;;;4.00;2.65;;;;;;;;;;5046039;28;20133;-84
2022/06/28 13:08:13;;;;;;;3.60;2.67;;;;;;;;;;5064145;28;20060;-85
2022/06/28 13:10:39;;;;;;;4.38;2.85;;;;;;;;;;5065209;28;20079;-86
2022/06/28 13:13:05;;;;;;;4.50;2.80;;;;;;;;;;5046611;28;20100;-86
2022/06/28 13:15:30;;;;;;;6.03;2.80;;;;;;;;;;5046602;28;20065;-85
2022/06/28 13:17:56;;;;;;;3.63;2.60;;;;;;;;;;5045984;28;20067;-85
2022/06/28 13:20:23;;;;;;;4.55;2.63;;;;;;;;;;5029110;28;20104;-84
2022/06/28 13:22:49;;;;;;;4.03;2.60;;;;;;;;;;5063371;28;20220;-85
2022/06/28 13:25:15;;;;;;;2.88;2.20;;;;;;;;;;5063564;28;20036;-85
2022/06/28 13:27:40;;;;;;;5.43;2.63;;;;;;;;;;5064589;28;20033;-85
2022/06/28 13:30:07;;;;;;;3.80;2.40;;;;;;;;;;5064665;28;20481;-85
2022/06/28 13:32:34;;;;;;;3.67;2.50;;;;;;;;;;5063587;28;20047;-85
2022/06/28 13:35:00;;;;;;;5.07;2.85;;;;;;;;;;5046074;28;20041;-85
2022/06/28 13:37:27;;;;;;;4.05;2.63;;;;;;;;;;5063899;28;20099;-85
2022/06/28 13:39:53;;;;;;;4.22;2.70;;;;;;;;;;5064615;28;20099;-85
2022/06/28 13:42:19;;;;;;;4.18;2.75;;;;;;;;;;5046851;28;20037;-86
2022/06/28 13:44:44;;;;;;;4.20;2.65;;;;;;;;;;5064303;28;20031;-85
2022/06/28 13:47:10;;;;;;;3.78;2.60;;;;;;;;;;5064618;28;20051;-85
2022/06/28 13:49:36;;;;;;;7.10;3.08;;;;;;;;;;5060515;28;20064;-84
2022/06/28 13:52:11;;;;;;;6.68;2.72;;;;;;;;;;5058760;28;20029;-87
2022/06/28 13:54:37;;;;;;;3.72;2.92;;;;;;;;;;5060253;28;20048;-84
2022/06/28 13:57:03;;;;;;;6.70;2.90;;;;;;;;;;5060983;28;20080;-83
2022/06/28 13:59:28;;;;;;;5.75;3.30;;;;;;;;;;5061506;28;20031;-85
2022/06/28 14:01:54;;;;;;;7.63;3.60;;;;;;;;;;5064218;28;20037;-86
2022/06/28 14:04:19;;;;;;;10.70;3.88;;;;;;;;;;5063339;28;20051;-83
2022/06/28 14:06:45;;;;;;;6.68;3.42;;;;;;;;;;5063531;28;20044;-85
2022/06/28 14:09:10;;;;;;;6.95;3.72;;;;;;;;;;5063930;28;20033;-82
2022/06/28 14:11:36;;;;;;;12.75;4.15;;;;;;;;;;5061516;28;20029;-84
2022/06/28 14:14:01;;;;;;;6.75;4.07;;;;;;;;;;5062631;28;20409;-85
2022/06/28 14:16:27;;;;;;;7.20;4.05;;;;;;;;;;5064681;28;20041;-85
2022/06/28 14:18:53;;;;;;;6.50;3.58;;;;;;;;;;5062601;28;20120;-84
2022/06/28 14:21:19;;;;;;;5.15;3.50;;;;;;;;;;5042730;28;20064;-84
2022/06/28 14:23:44;;;;;;;6.60;3.65;;;;;;;;;;5060367;28;20040;-85
2022/06/28 14:26:10;;;;;;;5.40;4.15;;;;;;;;;;5043238;28;20068;-85
2022/06/28 14:28:35;;;;;;;7.43;3.72;;;;;;;;;;5062199;28;20067;-85
2022/06/28 14:31:01;;;;;;;10.48;4.40;;;;;;;;;;5062932;28;20041;-85
2022/06/28 14:33:27;;;;;;;5.07;3.40;;;;;;;;;;5045643;28;20033;-85
2022/06/28 14:35:53;;;;;;;6.28;3.78;;;;;;;;;;5058255;28;20039;-87
2022/06/28 14:38:21;;;;;;;8.88;4.60;;;;;;;;;;5041890;28;20505;-84
2022/06/28 14:40:47;;;;;;;7.32;4.70;;;;;;;;;;5060643;28;20048;-85
2022/06/28 14:43:13;;;;;;;6.50;4.13;;;;;;;;;;5058440;28;20040;-84
2022/06/28 14:45:39;;;;;;;8.32;4.60;;;;;;;;;;5059437;28;20083;-83
2022/06/28 14:48:05;;;;;;;10.93;4.93;;;;;;;;;;5039903;28;20072;-83
2022/06/28 14:50:31;;;;;;;7.72;5.00;;;;;;;;;;5059358;28;20036;-83
2022/06/28 14:52:56;;;;;;;6.85;4.70;;;;;;;;;;5059453;28;20045;-83
2022/06/28 14:55:22;;;;;;;6.68;4.43;;;;;;;;;;5059075;28;20036;-83
2022/06/28 14:57:48;;;;;;;10.88;5.18;;;;;;;;;;5060769;28;20037;-83
2022/06/28 15:00:15;;;;;;;7.20;5.03;;;;;;;;;;5042199;28;20037;-83
2022/06/28 15:02:41;;;;;;;5.78;4.88;;;;;;;;;;5041614;28;20033;-84
2022/06/28 15:05:07;;;;;;;8.70;4.93;;;;;;;;;;5041152;28;20080;-83
2022/06/28 15:07:34;;;;;;;7.85;5.55;;;;;;;;;;5061629;28;20037;-83
2022/06/28 15:10:01;;;;;;;6.82;4.82;;;;;;;;;;5045581;28;20033;-84
2022/06/28 15:12:26;;;;;;;8.80;5.00;;;;;;;;;;5063801;28;20031;-83
2022/06/28 15:14:52;;;;;;;5.90;4.53;;;;;;;;;;5044859;28;20036;-83
2022/06/28 15:17:18;;;;;;;5.90;4.82;;;;;;;;;;5063133;28;20470;-84
2022/06/28 15:19:44;;;;;;;8.02;5.15;;;;;;;;;;5045738;28;20052;-83
2022/06/28 15:33:06;;;;;;;11.50;5.72;;;;;;;;;;5063406;28;20037;-84
2022/06/28 15:35:32;;;;;;;7.32;5.53;;;;;;;;;;5044404;28;20068;-84
2022/06/28 15:37:57;;;;;;;6.57;5.50;;;;;;;;;;5063018;28;20028;-83
2022/06/28 15:40:23;;;;;;;7.18;4.95;;;;;;;;;;5062492;28;20048;-83
2022/06/28 15:42:48;;;;;;;7.40;4.80;;;;;;;;;;5044672;28;20033;-83
2022/06/28 15:45:14;;;;;;;12.30;5.35;;;;;;;;;;5062399;28;20037;-83
2022/06/28 15:47:39;;;;;;;8.00;5.53;;;;;;;;;;5063421;28;20033;-83
2022/06/28 15:50:05;;;;;;;7.88;5.43;;;;;;;;;;5045619;28;20580;-84
2022/06/28 15:52:31;;;;;;;5.80;4.65;;;;;;;;;;5064098;28;20052;-83
2022/06/28 15:54:56;;;;;;;9.20;4.95;;;;;;;;;;5062792;28;20062;-84
2022/06/28 15:57:22;;;;;;;8.35;4.50;;;;;;;;;;5063550;28;20047;-83
2022/06/28 15:59:47;;;;;;;10.82;5.30;;;;;;;;;;5063795;28;20093;-83